sensor_id;sensor_type;location;lat;lon;timestamp;temperature;humidity
65034;DHT22;51601;51.356;12.458;2023-04-02T00:02:29;5.20;99.90
65034;DHT22;51601;51.356;12.458;2023-04-02T00:06:52;5.20;99.90
65034;DHT22;51601;51.356;12.458;2023-04-02T00:11:28;5.10;99.90
65034;DHT22;51601;51.356;12.458;2023-04-02T00:15:54;5.10;99.90
65034;DHT22;51601;51.356;12.458;2023-04-02T00:20:15;5.10;99.90
65034;DHT22;51601;51.356;12.458;2023-04-02T00:24:37;5.10;99.90
65034;DHT22;51601;51.356;12.458;2023-04-02T00:28:58;5.00;99.90
65034;DHT22;51601;51.356;12.458;2023-04-02T00:33:19;5.00;99.90
65034;DHT22;51601;51.356;12.458;2023-04-02T00:37:39;5.00;99.90
65034;DHT22;51601;51.356;12.458;2023-04-02T00:41:57;4.90;99.90
65034;DHT22;51601;51.356;12.458;2023-04-02T00:46:26;4.90;99.90
65034;DHT22;51601;51.356;12.458;2023-04-02T00:50:45;4.90;99.90
65034;DHT22;51601;51.356;12.458;2023-04-02T00:55:11;4.80;99.90
65034;DHT22;51601;51.356;12.458;2023-04-02T00:59:33;4.80;99.90
65034;DHT22;51601;51.356;12.458;2023-04-02T01:04:01;4.80;99.90
65034;DHT22;51601;51.356;12.458;2023-04-02T01:08:25;4.70;99.90
65034;DHT22;51601;51.356;12.458;2023-04-02T01:12:54;4.70;99.90
65034;DHT22;51601;51.356;12.458;2023-04-02T01:17:34;4.70;99.90
65034;DHT22;51601;51.356;12.458;2023-04-02T01:21:58;4.60;99.90
65034;DHT22;51601;51.356;12.458;2023-04-02T01:26:25;4.60;99.90
65034;DHT22;51601;51.356;12.458;2023-04-02T01:30:49;4.50;99.90
65034;DHT22;51601;51.356;12.458;2023-04-02T01:35:11;4.50;99.90
65034;DHT22;51601;51.356;12.458;2023-04-02T01:39:39;4.50;99.90
65034;DHT22;51601;51.356;12.458;2023-04-02T01:44:02;4.40;99.90
65034;DHT22;51601;51.356;12.458;2023-04-02T01:48:28;4.40;99.90
65034;DHT22;51601;51.356;12.458;2023-04-02T01:52:49;4.30;99.90
65034;DHT22;51601;51.356;12.458;2023-04-02T01:57:08;4.30;99.90
65034;DHT22;51601;51.356;12.458;2023-04-02T02:01:30;4.30;99.90
65034;DHT22;51601;51.356;12.458;2023-04-02T02:05:52;4.30;99.90
65034;DHT22;51601;51.356;12.458;2023-04-02T02:10:13;4.20;99.90
65034;DHT22;51601;51.356;12.458;2023-04-02T02:14:33;4.20;99.90
65034;DHT22;51601;51.356;12.458;2023-04-02T02:18:53;4.10;99.90
65034;DHT22;51601;51.356;12.458;2023-04-02T02:23:14;4.10;99.90
65034;DHT22;51601;51.356;12.458;2023-04-02T02:27:44;4.00;99.90
65034;DHT22;51601;51.356;12.458;2023-04-02T02:32:05;4.00;99.90
65034;DHT22;51601;51.356;12.458;2023-04-02T02:36:28;3.90;99.90
65034;DHT22;51601;51.356;12.458;2023-04-02T02:40:55;3.90;99.90
65034;DHT22;51601;51.356;12.458;2023-04-02T02:45:18;3.90;99.90
65034;DHT22;51601;51.356;12.458;2023-04-02T02:49:40;3.90;99.90
65034;DHT22;51601;51.356;12.458;2023-04-02T02:54:01;3.90;99.90
65034;DHT22;51601;51.356;12.458;2023-04-02T02:58:27;3.80;99.90
65034;DHT22;51601;51.356;12.458;2023-04-02T03:02:57;3.80;99.90
65034;DHT22;51601;51.356;12.458;2023-04-02T03:07:22;3.80;99.90
65034;DHT22;51601;51.356;12.458;2023-04-02T03:11:51;3.80;99.90
65034;DHT22;51601;51.356;12.458;2023-04-02T03:16:17;3.80;99.90
65034;DHT22;51601;51.356;12.458;2023-04-02T03:20:44;3.80;99.90
65034;DHT22;51601;51.356;12.458;2023-04-02T03:25:19;3.80;99.90
65034;DHT22;51601;51.356;12.458;2023-04-02T03:29:42;3.70;99.90
65034;DHT22;51601;51.356;12.458;2023-04-02T03:34:12;3.70;99.90
65034;DHT22;51601;51.356;12.458;2023-04-02T03:38:40;3.60;99.90
65034;DHT22;51601;51.356;12.458;2023-04-02T03:43:03;3.60;99.90
65034;DHT22;51601;51.356;12.458;2023-04-02T03:47:28;3.50;99.90
65034;DHT22;51601;51.356;12.458;2023-04-02T03:51:53;3.50;99.90
65034;DHT22;51601;51.356;12.458;2023-04-02T03:56:25;3.40;99.90
65034;DHT22;51601;51.356;12.458;2023-04-02T04:00:49;3.40;99.90
65034;DHT22;51601;51.356;12.458;2023-04-02T04:05:20;3.40;99.90
65034;DHT22;51601;51.356;12.458;2023-04-02T04:09:45;3.40;99.90
65034;DHT22;51601;51.356;12.458;2023-04-02T04:14:07;3.30;99.90
65034;DHT22;51601;51.356;12.458;2023-04-02T04:18:32;3.30;99.90
65034;DHT22;51601;51.356;12.458;2023-04-02T04:23:07;3.30;99.90
65034;DHT22;51601;51.356;12.458;2023-04-02T04:27:34;3.30;99.90
65034;DHT22;51601;51.356;12.458;2023-04-02T04:32:13;3.30;99.90
65034;DHT22;51601;51.356;12.458;2023-04-02T04:36:40;3.30;99.90
65034;DHT22;51601;51.356;12.458;2023-04-02T04:41:17;3.20;99.90
65034;DHT22;51601;51.356;12.458;2023-04-02T04:45:43;3.20;99.90
65034;DHT22;51601;51.356;12.458;2023-04-02T04:50:10;3.20;99.90
65034;DHT22;51601;51.356;12.458;2023-04-02T04:54:31;3.10;99.90
65034;DHT22;51601;51.356;12.458;2023-04-02T04:58:51;3.20;99.90
65034;DHT22;51601;51.356;12.458;2023-04-02T05:03:15;3.10;99.90
65034;DHT22;51601;51.356;12.458;2023-04-02T05:07:42;3.10;99.90
65034;DHT22;51601;51.356;12.458;2023-04-02T05:12:07;3.10;99.90
65034;DHT22;51601;51.356;12.458;2023-04-02T05:16:33;3.10;99.90
65034;DHT22;51601;51.356;12.458;2023-04-02T05:21:02;3.10;99.90
65034;DHT22;51601;51.356;12.458;2023-04-02T05:25:28;3.10;99.90
65034;DHT22;51601;51.356;12.458;2023-04-02T05:29:55;3.00;99.90
65034;DHT22;51601;51.356;12.458;2023-04-02T05:34:22;3.00;99.90
65034;DHT22;51601;51.356;12.458;2023-04-02T05:38:45;3.00;99.90
65034;DHT22;51601;51.356;12.458;2023-04-02T05:43:09;3.00;99.90
65034;DHT22;51601;51.356;12.458;2023-04-02T05:47:33;2.90;99.90
65034;DHT22;51601;51.356;12.458;2023-04-02T05:52:02;2.90;99.90
65034;DHT22;51601;51.356;12.458;2023-04-02T05:56:26;2.90;99.90
65034;DHT22;51601;51.356;12.458;2023-04-02T06:01:01;2.90;99.90
65034;DHT22;51601;51.356;12.458;2023-04-02T06:05:25;2.90;99.90
65034;DHT22;51601;51.356;12.458;2023-04-02T06:09:51;2.90;99.90
65034;DHT22;51601;51.356;12.458;2023-04-02T06:14:14;2.90;99.90
65034;DHT22;51601;51.356;12.458;2023-04-02T06:18:36;2.90;99.90
65034;DHT22;51601;51.356;12.458;2023-04-02T06:22:57;3.00;99.90
65034;DHT22;51601;51.356;12.458;2023-04-02T06:27:18;3.00;99.90
65034;DHT22;51601;51.356;12.458;2023-04-02T06:31:43;3.00;99.90
65034;DHT22;51601;51.356;12.458;2023-04-02T06:36:07;3.00;99.90
65034;DHT22;51601;51.356;12.458;2023-04-02T06:40:34;3.00;99.90
65034;DHT22;51601;51.356;12.458;2023-04-02T06:45:28;3.10;99.90
65034;DHT22;51601;51.356;12.458;2023-04-02T06:50:25;3.10;99.90
65034;DHT22;51601;51.356;12.458;2023-04-02T06:54:50;3.10;99.90
65034;DHT22;51601;51.356;12.458;2023-04-02T06:59:08;3.10;99.90
65034;DHT22;51601;51.356;12.458;2023-04-02T07:03:31;3.10;99.90
65034;DHT22;51601;51.356;12.458;2023-04-02T07:07:58;3.10;99.90
65034;DHT22;51601;51.356;12.458;2023-04-02T07:12:22;3.10;99.90
65034;DHT22;51601;51.356;12.458;2023-04-02T07:16:42;3.10;99.90
65034;DHT22;51601;51.356;12.458;2023-04-02T07:21:00;3.20;99.90
65034;DHT22;51601;51.356;12.458;2023-04-02T07:25:19;3.20;99.90
65034;DHT22;51601;51.356;12.458;2023-04-02T07:29:39;3.30;99.90
65034;DHT22;51601;51.356;12.458;2023-04-02T07:34:00;3.30;99.90
65034;DHT22;51601;51.356;12.458;2023-04-02T07:38:18;3.30;99.90
65034;DHT22;51601;51.356;12.458;2023-04-02T07:42:38;3.30;99.90
65034;DHT22;51601;51.356;12.458;2023-04-02T07:46:57;3.30;99.90
65034;DHT22;51601;51.356;12.458;2023-04-02T07:51:20;3.30;99.90
65034;DHT22;51601;51.356;12.458;2023-04-02T07:55:40;3.30;99.90
65034;DHT22;51601;51.356;12.458;2023-04-02T07:59:59;3.30;99.90
65034;DHT22;51601;51.356;12.458;2023-04-02T08:04:28;3.30;99.90
65034;DHT22;51601;51.356;12.458;2023-04-02T08:08:46;3.40;99.90
65034;DHT22;51601;51.356;12.458;2023-04-02T08:13:04;3.40;99.90
65034;DHT22;51601;51.356;12.458;2023-04-02T08:17:24;3.40;99.90
65034;DHT22;51601;51.356;12.458;2023-04-02T08:21:46;3.40;99.90
65034;DHT22;51601;51.356;12.458;2023-04-02T08:26:08;3.30;99.90
65034;DHT22;51601;51.356;12.458;2023-04-02T08:30:29;3.40;99.90
65034;DHT22;51601;51.356;12.458;2023-04-02T08:34:49;3.40;99.90
65034;DHT22;51601;51.356;12.458;2023-04-02T08:39:08;3.40;99.90
65034;DHT22;51601;51.356;12.458;2023-04-02T08:43:57;3.40;99.90
65034;DHT22;51601;51.356;12.458;2023-04-02T08:48:18;3.50;99.90
65034;DHT22;51601;51.356;12.458;2023-04-02T08:52:37;3.50;99.90
65034;DHT22;51601;51.356;12.458;2023-04-02T08:57:04;3.50;99.90
65034;DHT22;51601;51.356;12.458;2023-04-02T09:01:32;3.50;99.90
65034;DHT22;51601;51.356;12.458;2023-04-02T09:05:55;3.60;99.90
65034;DHT22;51601;51.356;12.458;2023-04-02T09:10:18;3.60;99.90
65034;DHT22;51601;51.356;12.458;2023-04-02T09:14:41;3.60;99.90
65034;DHT22;51601;51.356;12.458;2023-04-02T09:19:01;3.80;99.90
65034;DHT22;51601;51.356;12.458;2023-04-02T09:23:22;3.80;99.90
65034;DHT22;51601;51.356;12.458;2023-04-02T09:27:46;3.90;99.90
65034;DHT22;51601;51.356;12.458;2023-04-02T09:32:22;3.90;99.90
65034;DHT22;51601;51.356;12.458;2023-04-02T09:36:44;3.90;99.90
65034;DHT22;51601;51.356;12.458;2023-04-02T09:41:04;4.00;99.90
65034;DHT22;51601;51.356;12.458;2023-04-02T09:45:25;4.00;99.90
65034;DHT22;51601;51.356;12.458;2023-04-02T09:49:44;4.10;99.90
65034;DHT22;51601;51.356;12.458;2023-04-02T09:54:07;4.10;99.90
65034;DHT22;51601;51.356;12.458;2023-04-02T09:58:30;4.10;99.90
65034;DHT22;51601;51.356;12.458;2023-04-02T10:03:02;4.10;99.90
65034;DHT22;51601;51.356;12.458;2023-04-02T10:07:32;4.30;99.90
65034;DHT22;51601;51.356;12.458;2023-04-02T10:11:53;4.40;99.90
65034;DHT22;51601;51.356;12.458;2023-04-02T10:16:16;4.50;99.90
65034;DHT22;51601;51.356;12.458;2023-04-02T10:20:40;4.50;99.90
65034;DHT22;51601;51.356;12.458;2023-04-02T10:25:13;4.50;99.90
65034;DHT22;51601;51.356;12.458;2023-04-02T10:30:04;4.50;99.90
65034;DHT22;51601;51.356;12.458;2023-04-02T10:34:33;4.40;99.90
65034;DHT22;51601;51.356;12.458;2023-04-02T10:38:58;4.50;99.90
65034;DHT22;51601;51.356;12.458;2023-04-02T10:48:12;4.80;99.90
65034;DHT22;51601;51.356;12.458;2023-04-02T10:52:37;4.80;99.90
65034;DHT22;51601;51.356;12.458;2023-04-02T10:57:03;4.80;99.90
65034;DHT22;51601;51.356;12.458;2023-04-02T11:01:25;4.90;99.90
65034;DHT22;51601;51.356;12.458;2023-04-02T11:05:48;4.90;99.90
65034;DHT22;51601;51.356;12.458;2023-04-02T11:10:14;5.00;99.90
65034;DHT22;51601;51.356;12.458;2023-04-02T11:14:36;5.10;99.90
65034;DHT22;51601;51.356;12.458;2023-04-02T11:19:21;5.10;99.90
65034;DHT22;51601;51.356;12.458;2023-04-02T11:23:53;5.20;99.90
65034;DHT22;51601;51.356;12.458;2023-04-02T11:28:18;5.20;99.90
65034;DHT22;51601;51.356;12.458;2023-04-02T11:32:44;5.20;99.90
65034;DHT22;51601;51.356;12.458;2023-04-02T11:37:08;5.30;99.90
65034;DHT22;51601;51.356;12.458;2023-04-02T11:42:00;5.30;99.90
65034;DHT22;51601;51.356;12.458;2023-04-02T11:46:44;5.40;99.90
65034;DHT22;51601;51.356;12.458;2023-04-02T11:51:21;5.50;99.90
65034;DHT22;51601;51.356;12.458;2023-04-02T11:56:19;5.60;99.90
65034;DHT22;51601;51.356;12.458;2023-04-02T12:01:09;5.70;99.90
65034;DHT22;51601;51.356;12.458;2023-04-02T12:05:34;5.80;99.90
65034;DHT22;51601;51.356;12.458;2023-04-02T12:09:57;6.00;99.90
65034;DHT22;51601;51.356;12.458;2023-04-02T12:14:44;6.10;98.60
65034;DHT22;51601;51.356;12.458;2023-04-02T12:19:07;6.20;96.50
65034;DHT22;51601;51.356;12.458;2023-04-02T12:23:28;6.30;96.00
65034;DHT22;51601;51.356;12.458;2023-04-02T12:28:02;6.40;96.00
65034;DHT22;51601;51.356;12.458;2023-04-02T12:32:28;6.50;97.40
65034;DHT22;51601;51.356;12.458;2023-04-02T12:36:54;6.70;94.60
65034;DHT22;51601;51.356;12.458;2023-04-02T12:41:21;6.80;92.80
65034;DHT22;51601;51.356;12.458;2023-04-02T12:45:40;6.90;95.10
65034;DHT22;51601;51.356;12.458;2023-04-02T12:50:01;6.80;96.50
65034;DHT22;51601;51.356;12.458;2023-04-02T12:54:20;6.70;97.20
65034;DHT22;51601;51.356;12.458;2023-04-02T12:58:41;6.70;97.40
65034;DHT22;51601;51.356;12.458;2023-04-02T13:03:15;6.60;98.40
65034;DHT22;51601;51.356;12.458;2023-04-02T13:07:36;6.60;99.60
65034;DHT22;51601;51.356;12.458;2023-04-02T13:11:56;6.70;99.90
65034;DHT22;51601;51.356;12.458;2023-04-02T13:16:31;6.80;98.30
65034;DHT22;51601;51.356;12.458;2023-04-02T13:20:55;6.80;98.00
65034;DHT22;51601;51.356;12.458;2023-04-02T13:25:16;6.90;96.00
65034;DHT22;51601;51.356;12.458;2023-04-02T13:29:36;6.90;93.70
65034;DHT22;51601;51.356;12.458;2023-04-02T13:33:57;7.00;92.50
65034;DHT22;51601;51.356;12.458;2023-04-02T13:38:18;7.00;92.10
65034;DHT22;51601;51.356;12.458;2023-04-02T13:42:41;7.00;94.10
65034;DHT22;51601;51.356;12.458;2023-04-02T13:47:01;7.00;94.00
65034;DHT22;51601;51.356;12.458;2023-04-02T13:51:21;7.00;93.60
65034;DHT22;51601;51.356;12.458;2023-04-02T13:55:41;6.90;94.00
65034;DHT22;51601;51.356;12.458;2023-04-02T14:00:03;6.90;94.20
65034;DHT22;51601;51.356;12.458;2023-04-02T14:04:27;6.80;94.80
65034;DHT22;51601;51.356;12.458;2023-04-02T14:08:56;6.90;94.30
65034;DHT22;51601;51.356;12.458;2023-04-02T14:13:31;7.00;94.90
65034;DHT22;51601;51.356;12.458;2023-04-02T14:23:04;7.20;93.10
65034;DHT22;51601;51.356;12.458;2023-04-02T14:27:35;7.40;91.20
65034;DHT22;51601;51.356;12.458;2023-04-02T14:32:03;7.50;91.10
65034;DHT22;51601;51.356;12.458;2023-04-02T14:36:34;7.60;88.10
65034;DHT22;51601;51.356;12.458;2023-04-02T14:42:30;7.70;88.10
65034;DHT22;51601;51.356;12.458;2023-04-02T14:48:29;7.80;86.30
65034;DHT22;51601;51.356;12.458;2023-04-02T14:53:24;7.80;84.20
65034;DHT22;51601;51.356;12.458;2023-04-02T15:04:19;7.70;81.10
65034;DHT22;51601;51.356;12.458;2023-04-02T15:08:46;7.50;82.30
65034;DHT22;51601;51.356;12.458;2023-04-02T15:13:29;7.40;82.50
65034;DHT22;51601;51.356;12.458;2023-04-02T15:17:47;7.30;81.80
65034;DHT22;51601;51.356;12.458;2023-04-02T15:22:24;7.20;82.00
65034;DHT22;51601;51.356;12.458;2023-04-02T15:26:54;7.10;82.20
65034;DHT22;51601;51.356;12.458;2023-04-02T15:31:16;7.00;81.60
65034;DHT22;51601;51.356;12.458;2023-04-02T15:35:41;7.00;85.20
65034;DHT22;51601;51.356;12.458;2023-04-02T15:40:19;7.00;87.80
65034;DHT22;51601;51.356;12.458;2023-04-02T15:49:38;7.00;84.00
65034;DHT22;51601;51.356;12.458;2023-04-02T15:54:05;6.90;82.10
65034;DHT22;51601;51.356;12.458;2023-04-02T15:58:32;6.90;85.90
65034;DHT22;51601;51.356;12.458;2023-04-02T16:07:59;7.00;84.00
65034;DHT22;51601;51.356;12.458;2023-04-02T16:12:24;7.00;84.40
65034;DHT22;51601;51.356;12.458;2023-04-02T16:16:51;6.90;84.10
65034;DHT22;51601;51.356;12.458;2023-04-02T16:21:16;6.90;83.00
65034;DHT22;51601;51.356;12.458;2023-04-02T16:25:42;6.80;82.60
65034;DHT22;51601;51.356;12.458;2023-04-02T16:30:22;6.80;83.40
65034;DHT22;51601;51.356;12.458;2023-04-02T16:34:52;6.70;81.40
65034;DHT22;51601;51.356;12.458;2023-04-02T16:39:44;6.60;81.20
65034;DHT22;51601;51.356;12.458;2023-04-02T16:44:15;6.50;82.50
65034;DHT22;51601;51.356;12.458;2023-04-02T16:48:47;6.50;82.60
65034;DHT22;51601;51.356;12.458;2023-04-02T16:53:21;6.40;83.60
65034;DHT22;51601;51.356;12.458;2023-04-02T16:57:51;6.40;84.40
65034;DHT22;51601;51.356;12.458;2023-04-02T17:02:21;6.30;86.40
65034;DHT22;51601;51.356;12.458;2023-04-02T17:06:54;6.20;88.70
65034;DHT22;51601;51.356;12.458;2023-04-02T17:11:22;6.10;90.10
65034;DHT22;51601;51.356;12.458;2023-04-02T17:15:48;6.10;90.00
65034;DHT22;51601;51.356;12.458;2023-04-02T17:20:16;6.00;90.90
65034;DHT22;51601;51.356;12.458;2023-04-02T17:24:41;5.90;92.30
65034;DHT22;51601;51.356;12.458;2023-04-02T17:29:06;5.90;92.40
65034;DHT22;51601;51.356;12.458;2023-04-02T17:33:27;5.80;93.30
65034;DHT22;51601;51.356;12.458;2023-04-02T17:37:50;5.80;94.40
65034;DHT22;51601;51.356;12.458;2023-04-02T17:42:15;5.80;95.10
65034;DHT22;51601;51.356;12.458;2023-04-02T17:46:39;5.80;95.70
65034;DHT22;51601;51.356;12.458;2023-04-02T17:51:07;5.80;96.50
65034;DHT22;51601;51.356;12.458;2023-04-02T17:55:38;5.70;97.00
65034;DHT22;51601;51.356;12.458;2023-04-02T18:00:15;5.80;97.20
65034;DHT22;51601;51.356;12.458;2023-04-02T18:04:40;5.70;97.30
65034;DHT22;51601;51.356;12.458;2023-04-02T18:09:21;5.70;97.60
65034;DHT22;51601;51.356;12.458;2023-04-02T18:13:48;5.70;97.90
65034;DHT22;51601;51.356;12.458;2023-04-02T18:18:18;5.70;98.80
65034;DHT22;51601;51.356;12.458;2023-04-02T18:22:46;5.80;99.70
65034;DHT22;51601;51.356;12.458;2023-04-02T18:31:51;5.80;99.90
65034;DHT22;51601;51.356;12.458;2023-04-02T18:36:15;5.80;99.90
65034;DHT22;51601;51.356;12.458;2023-04-02T18:40:41;5.80;99.90
65034;DHT22;51601;51.356;12.458;2023-04-02T18:45:10;5.90;99.90
65034;DHT22;51601;51.356;12.458;2023-04-02T18:49:35;5.90;99.90
65034;DHT22;51601;51.356;12.458;2023-04-02T18:54:05;5.90;99.90
65034;DHT22;51601;51.356;12.458;2023-04-02T18:58:33;5.90;99.90
65034;DHT22;51601;51.356;12.458;2023-04-02T19:02:57;5.90;99.90
65034;DHT22;51601;51.356;12.458;2023-04-02T19:07:20;5.90;99.90
65034;DHT22;51601;51.356;12.458;2023-04-02T19:11:40;5.90;99.90
65034;DHT22;51601;51.356;12.458;2023-04-02T19:16:23;5.90;99.90
65034;DHT22;51601;51.356;12.458;2023-04-02T19:20:52;5.90;99.90
65034;DHT22;51601;51.356;12.458;2023-04-02T19:25:28;5.90;99.90
65034;DHT22;51601;51.356;12.458;2023-04-02T19:30:01;5.90;99.90
65034;DHT22;51601;51.356;12.458;2023-04-02T19:34:27;5.90;99.90
65034;DHT22;51601;51.356;12.458;2023-04-02T19:38:59;5.80;99.90
65034;DHT22;51601;51.356;12.458;2023-04-02T19:43:22;5.80;99.90
65034;DHT22;51601;51.356;12.458;2023-04-02T19:47:40;5.80;99.90
65034;DHT22;51601;51.356;12.458;2023-04-02T19:51:58;5.70;99.90
65034;DHT22;51601;51.356;12.458;2023-04-02T19:56:18;5.70;99.90
65034;DHT22;51601;51.356;12.458;2023-04-02T20:00:38;5.70;99.90
65034;DHT22;51601;51.356;12.458;2023-04-02T20:04:55;5.60;99.90
65034;DHT22;51601;51.356;12.458;2023-04-02T20:09:13;5.50;99.70
65034;DHT22;51601;51.356;12.458;2023-04-02T20:13:34;5.50;98.90
65034;DHT22;51601;51.356;12.458;2023-04-02T20:17:53;5.40;98.20
65034;DHT22;51601;51.356;12.458;2023-04-02T20:22:11;5.30;97.40
65034;DHT22;51601;51.356;12.458;2023-04-02T20:26:29;5.30;97.60
65034;DHT22;51601;51.356;12.458;2023-04-02T20:30:49;5.20;97.60
65034;DHT22;51601;51.356;12.458;2023-04-02T20:35:09;5.20;97.60
65034;DHT22;51601;51.356;12.458;2023-04-02T20:39:26;5.10;97.70
65034;DHT22;51601;51.356;12.458;2023-04-02T20:43:44;5.10;97.30
65034;DHT22;51601;51.356;12.458;2023-04-02T20:48:04;5.00;95.80
65034;DHT22;51601;51.356;12.458;2023-04-02T20:52:23;5.00;96.00
65034;DHT22;51601;51.356;12.458;2023-04-02T20:56:44;4.90;95.50
65034;DHT22;51601;51.356;12.458;2023-04-02T21:01:07;4.90;95.50
65034;DHT22;51601;51.356;12.458;2023-04-02T21:05:31;4.80;95.10
65034;DHT22;51601;51.356;12.458;2023-04-02T21:09:51;4.70;95.70
65034;DHT22;51601;51.356;12.458;2023-04-02T21:14:10;4.70;96.20
65034;DHT22;51601;51.356;12.458;2023-04-02T21:18:30;4.60;96.70
65034;DHT22;51601;51.356;12.458;2023-04-02T21:22:49;4.60;96.90
65034;DHT22;51601;51.356;12.458;2023-04-02T21:27:09;4.60;97.20
65034;DHT22;51601;51.356;12.458;2023-04-02T21:31:35;4.50;97.10
65034;DHT22;51601;51.356;12.458;2023-04-02T21:35:54;4.50;96.90
65034;DHT22;51601;51.356;12.458;2023-04-02T21:40:14;4.40;97.00
65034;DHT22;51601;51.356;12.458;2023-04-02T21:44:34;4.40;97.10
65034;DHT22;51601;51.356;12.458;2023-04-02T21:48:53;4.30;97.40
65034;DHT22;51601;51.356;12.458;2023-04-02T21:53:13;4.20;97.60
65034;DHT22;51601;51.356;12.458;2023-04-02T21:57:32;4.20;97.80
65034;DHT22;51601;51.356;12.458;2023-04-02T22:01:52;4.10;98.10
65034;DHT22;51601;51.356;12.458;2023-04-02T22:06:12;4.10;98.40
65034;DHT22;51601;51.356;12.458;2023-04-02T22:10:31;4.00;98.70
65034;DHT22;51601;51.356;12.458;2023-04-02T22:14:51;4.00;98.80
65034;DHT22;51601;51.356;12.458;2023-04-02T22:19:13;3.90;99.00
65034;DHT22;51601;51.356;12.458;2023-04-02T22:23:32;3.90;99.10
65034;DHT22;51601;51.356;12.458;2023-04-02T22:27:50;3.80;99.00
65034;DHT22;51601;51.356;12.458;2023-04-02T22:32:09;3.70;98.70
65034;DHT22;51601;51.356;12.458;2023-04-02T22:36:29;3.70;98.70
65034;DHT22;51601;51.356;12.458;2023-04-02T22:40:47;3.60;98.70
65034;DHT22;51601;51.356;12.458;2023-04-02T22:45:06;3.50;99.10
65034;DHT22;51601;51.356;12.458;2023-04-02T22:49:28;3.50;99.40
65034;DHT22;51601;51.356;12.458;2023-04-02T22:53:47;3.40;99.60
65034;DHT22;51601;51.356;12.458;2023-04-02T22:58:06;3.30;99.50
65034;DHT22;51601;51.356;12.458;2023-04-02T23:02:26;3.20;99.50
65034;DHT22;51601;51.356;12.458;2023-04-02T23:06:46;3.20;99.50
65034;DHT22;51601;51.356;12.458;2023-04-02T23:11:07;3.10;99.10
65034;DHT22;51601;51.356;12.458;2023-04-02T23:15:27;3.00;99.50
65034;DHT22;51601;51.356;12.458;2023-04-02T23:19:45;2.90;99.90
65034;DHT22;51601;51.356;12.458;2023-04-02T23:24:05;2.80;99.90
65034;DHT22;51601;51.356;12.458;2023-04-02T23:28:24;2.70;99.90
65034;DHT22;51601;51.356;12.458;2023-04-02T23:32:42;2.60;99.90
65034;DHT22;51601;51.356;12.458;2023-04-02T23:37:00;2.60;99.60
65034;DHT22;51601;51.356;12.458;2023-04-02T23:41:20;2.50;99.90
65034;DHT22;51601;51.356;12.458;2023-04-02T23:45:39;2.50;99.90
65034;DHT22;51601;51.356;12.458;2023-04-02T23:49:57;2.40;99.90
65034;DHT22;51601;51.356;12.458;2023-04-02T23:54:15;2.40;99.90
65034;DHT22;51601;51.356;12.458;2023-04-02T23:58:38;2.30;99.90
